createdAt,value
2018-05-06T00:00:32.941Z,11.91
2018-05-06T00:05:37.219Z,11.97
2018-05-06T00:08:04.811Z,11.91
2018-05-06T00:10:32.328Z,11.93
2018-05-06T00:12:59.840Z,11.92
2018-05-06T00:15:27.380Z,11.72
2018-05-06T00:17:54.872Z,11.67
2018-05-06T00:20:22.392Z,11.63
2018-05-06T00:22:49.915Z,11.57
2018-05-06T00:25:17.461Z,11.48
2018-05-06T00:27:45.042Z,11.45
2018-05-06T00:30:12.587Z,11.38
2018-05-06T00:32:40.212Z,11.40
2018-05-06T00:35:07.784Z,11.46
2018-05-06T00:37:35.374Z,11.50
2018-05-06T00:40:02.977Z,11.50
2018-05-06T00:42:30.568Z,11.49
2018-05-06T00:44:58.174Z,11.48
2018-05-06T00:47:26.213Z,11.44
2018-05-06T00:49:53.777Z,11.36
2018-05-06T00:52:21.518Z,11.31
2018-05-06T00:54:49.094Z,11.23
2018-05-06T00:57:16.675Z,11.25
2018-05-06T00:59:44.277Z,11.28
2018-05-06T01:02:11.849Z,11.26
2018-05-06T01:04:39.464Z,11.30
2018-05-06T01:07:07.153Z,11.33
2018-05-06T01:09:34.789Z,11.32
2018-05-06T01:12:02.424Z,11.16
2018-05-06T01:14:29.999Z,10.96
2018-05-06T01:16:57.581Z,10.81
2018-05-06T01:19:25.606Z,10.73
2018-05-06T01:21:53.154Z,10.63
2018-05-06T01:24:20.808Z,10.56
2018-05-06T01:26:48.397Z,10.44
2018-05-06T01:29:15.975Z,10.44
2018-05-06T01:31:43.693Z,10.45
2018-05-06T01:34:11.271Z,10.44
2018-05-06T01:36:38.846Z,10.34
2018-05-06T01:39:06.485Z,10.28
2018-05-06T01:41:34.052Z,10.25
2018-05-06T01:44:01.645Z,10.15
2018-05-06T01:46:29.216Z,10.11
2018-05-06T01:48:56.835Z,10.06
2018-05-06T01:51:24.462Z,10.00
2018-05-06T01:53:52.038Z,9.95
2018-05-06T01:58:53.464Z,10.04
2018-05-06T02:01:21.031Z,10.10
2018-05-06T02:03:48.595Z,10.14
2018-05-06T02:06:16.222Z,10.03
2018-05-06T02:08:44.711Z,10.01
2018-05-06T02:11:12.297Z,10.08
2018-05-06T02:13:39.936Z,10.04
2018-05-06T02:16:07.477Z,10.03
2018-05-06T02:18:35.117Z,10.02
2018-05-06T02:21:02.671Z,9.93
2018-05-06T02:23:30.239Z,9.97
2018-05-06T02:25:57.859Z,10.03
2018-05-06T02:28:25.444Z,10.04
2018-05-06T02:30:53.028Z,10.07
2018-05-06T02:33:20.898Z,10.03
2018-05-06T02:35:48.503Z,9.89
2018-05-06T02:38:16.048Z,9.88
2018-05-06T02:40:43.614Z,9.90
2018-05-06T02:43:11.661Z,9.95
2018-05-06T02:45:39.295Z,9.91
2018-05-06T02:48:06.912Z,9.88
2018-05-06T02:50:34.469Z,9.86
2018-05-06T02:53:02.050Z,9.74
2018-05-06T02:55:29.823Z,9.72
2018-05-06T02:57:57.355Z,9.71
2018-05-06T03:00:24.895Z,9.67
2018-05-06T03:02:52.414Z,9.60
2018-05-06T03:05:19.956Z,9.60
2018-05-06T03:07:47.485Z,9.58
2018-05-06T03:10:14.977Z,9.47
2018-05-06T03:12:42.914Z,9.39
2018-05-06T03:15:11.607Z,9.37
2018-05-06T03:17:40.293Z,9.31
2018-05-06T03:20:07.873Z,9.28
2018-05-06T03:22:35.434Z,9.10
2018-05-06T03:25:03.031Z,8.98
2018-05-06T03:27:30.607Z,9.01
2018-05-06T03:29:58.113Z,9.11
2018-05-06T03:32:25.689Z,9.19
2018-05-06T03:34:53.248Z,9.21
2018-05-06T03:37:21.149Z,9.12
2018-05-06T03:39:48.755Z,9.15
2018-05-06T03:42:16.318Z,9.16
2018-05-06T03:44:43.880Z,9.21
2018-05-06T03:47:11.517Z,9.17
2018-05-06T03:49:39.137Z,9.14
2018-05-06T03:52:06.703Z,9.15
2018-05-06T03:54:34.289Z,9.19
2018-05-06T03:57:13.829Z,9.25
2018-05-06T03:59:53.204Z,9.26
2018-05-06T04:05:21.604Z,9.27
2018-05-06T04:07:49.192Z,9.24
2018-05-06T04:10:16.770Z,9.28
2018-05-06T04:15:18.788Z,9.21
2018-05-06T04:17:46.336Z,9.19
2018-05-06T04:20:14.711Z,9.19
2018-05-06T04:22:42.321Z,9.23
2018-05-06T04:25:10.368Z,9.22
2018-05-06T04:27:37.909Z,9.22
2018-05-06T04:30:05.502Z,9.22
2018-05-06T04:32:33.090Z,9.25
2018-05-06T04:35:00.653Z,9.30
2018-05-06T04:37:28.600Z,9.35
2018-05-06T04:39:56.229Z,9.43
2018-05-06T04:42:23.815Z,9.50
2018-05-06T04:44:51.435Z,9.60
2018-05-06T04:47:19.024Z,9.66
2018-05-06T04:49:46.602Z,9.72
2018-05-06T04:52:14.214Z,9.76
2018-05-06T04:54:41.753Z,9.84
2018-05-06T04:57:10.057Z,9.91
2018-05-06T04:59:37.601Z,9.97
2018-05-06T05:02:05.458Z,10.03
2018-05-06T05:04:33.120Z,10.10
2018-05-06T05:07:00.685Z,10.14
2018-05-06T05:09:29.148Z,10.22
2018-05-06T05:11:56.753Z,10.30
2018-05-06T05:14:24.477Z,10.36
2018-05-06T05:16:52.030Z,10.43
2018-05-06T05:19:19.856Z,10.44
2018-05-06T05:21:47.414Z,10.49
2018-05-06T05:24:14.962Z,10.57
2018-05-06T05:26:42.611Z,10.62
2018-05-06T05:29:11.620Z,10.72
2018-05-06T05:31:39.191Z,10.83
2018-05-06T05:34:06.708Z,10.90
2018-05-06T05:36:34.228Z,11.03
2018-05-06T05:39:01.726Z,11.13
2018-05-06T05:41:29.327Z,11.23
2018-05-06T05:43:56.900Z,11.30
2018-05-06T05:46:24.486Z,11.41
2018-05-06T05:48:52.077Z,11.49
2018-05-06T05:51:20.292Z,11.58
2018-05-06T05:53:47.863Z,11.68
2018-05-06T05:56:15.451Z,11.77
2018-05-06T05:58:43.012Z,11.89
2018-05-06T06:01:10.608Z,11.99
2018-05-06T06:03:38.987Z,12.13
2018-05-06T06:06:06.604Z,12.24
2018-05-06T06:08:34.194Z,12.35
2018-05-06T06:11:01.799Z,12.45
2018-05-06T06:13:29.381Z,12.52
2018-05-06T06:15:57.001Z,12.73
2018-05-06T06:18:25.427Z,12.89
2018-05-06T06:20:53.065Z,13.02
2018-05-06T06:23:20.650Z,13.16
2018-05-06T06:25:48.304Z,13.31
2018-05-06T06:28:15.893Z,13.48
2018-05-06T06:30:43.456Z,13.63
2018-05-06T06:33:11.692Z,13.78
2018-05-06T06:35:39.349Z,13.93
2018-05-06T06:38:06.904Z,14.07
2018-05-06T06:40:34.556Z,14.21
2018-05-06T06:43:02.168Z,14.34
2018-05-06T06:45:29.754Z,14.49
2018-05-06T06:47:57.339Z,14.59
2018-05-06T06:50:24.939Z,14.71
2018-05-06T06:52:52.582Z,14.84
2018-05-06T06:55:20.217Z,14.95
2018-05-06T06:57:47.864Z,15.04
2018-05-06T07:00:16.049Z,15.22
2018-05-06T07:02:43.644Z,15.34
2018-05-06T07:05:12.420Z,15.47
2018-05-06T07:07:40.560Z,15.58
2018-05-06T07:10:08.113Z,15.66
2018-05-06T07:12:35.687Z,15.78
2018-05-06T07:15:03.256Z,15.89
2018-05-06T07:17:30.841Z,15.99
2018-05-06T07:19:58.423Z,16.07
2018-05-06T07:22:26.384Z,16.18
2018-05-06T07:24:53.968Z,16.25
2018-05-06T07:27:21.563Z,16.37
2018-05-06T07:29:49.187Z,16.45
2018-05-06T07:32:16.744Z,16.54
2018-05-06T07:34:44.332Z,16.62
2018-05-06T07:37:12.405Z,16.78
2018-05-06T07:39:40.038Z,16.87
2018-05-06T07:42:08.930Z,16.97
2018-05-06T07:44:36.551Z,16.95
2018-05-06T07:47:04.058Z,17.05
2018-05-06T07:49:31.569Z,17.16
2018-05-06T07:51:59.106Z,17.29
2018-05-06T07:54:26.689Z,17.33
2018-05-06T07:56:54.237Z,17.42
2018-05-06T07:59:21.804Z,17.58
2018-05-06T08:01:49.365Z,17.54
2018-05-06T08:04:16.877Z,17.54
2018-05-06T08:06:44.496Z,17.56
2018-05-06T08:09:12.296Z,17.67
2018-05-06T08:11:40.788Z,17.84
2018-05-06T08:14:08.367Z,17.99
2018-05-06T08:16:35.956Z,17.99
2018-05-06T08:19:03.613Z,18.12
2018-05-06T08:21:31.265Z,18.07
2018-05-06T08:23:59.728Z,18.13
2018-05-06T08:26:27.302Z,18.28
2018-05-06T08:28:54.892Z,18.43
2018-05-06T08:31:23.663Z,18.55
2018-05-06T08:33:51.224Z,18.58
2018-05-06T08:36:18.913Z,18.65
2018-05-06T08:38:46.588Z,18.69
2018-05-06T08:41:14.455Z,18.77
2018-05-06T08:43:43.097Z,18.84
2018-05-06T08:46:10.697Z,18.93
2018-05-06T08:48:38.282Z,19.00
2018-05-06T08:51:05.985Z,19.04
2018-05-06T08:53:33.639Z,19.10
2018-05-06T08:56:01.389Z,19.04
2018-05-06T08:58:28.971Z,19.17
2018-05-06T09:00:56.485Z,19.33
2018-05-06T09:03:24.127Z,19.46
2018-05-06T09:05:51.858Z,19.55
2018-05-06T09:08:19.435Z,19.58
2018-05-06T09:10:47.048Z,19.64
2018-05-06T09:13:14.955Z,19.73
2018-05-06T09:15:42.499Z,19.90
2018-05-06T09:18:10.128Z,20.09
2018-05-06T09:20:38.217Z,20.24
2018-05-06T09:23:05.837Z,20.38
2018-05-06T09:25:33.655Z,20.50
2018-05-06T09:28:01.299Z,20.58
2018-05-06T09:30:28.887Z,20.65
2018-05-06T09:32:56.477Z,20.46
2018-05-06T09:35:24.395Z,20.41
2018-05-06T09:37:52.199Z,20.46
2018-05-06T09:40:19.791Z,20.59
2018-05-06T09:45:21.448Z,20.87
2018-05-06T09:47:49.134Z,21.01
2018-05-06T09:50:16.583Z,21.12
2018-05-06T09:52:44.187Z,21.23
2018-05-06T09:55:11.766Z,21.43
2018-05-06T09:57:39.392Z,21.55
2018-05-06T10:00:07.049Z,21.66
2018-05-06T10:02:34.687Z,21.72
2018-05-06T10:05:02.292Z,21.79
2018-05-06T10:07:29.999Z,21.87
2018-05-06T10:09:57.736Z,21.98
2018-05-06T10:12:25.353Z,22.08
2018-05-06T10:14:52.897Z,22.20
2018-05-06T10:17:20.467Z,22.25
2018-05-06T10:19:48.133Z,22.25
2018-05-06T10:22:15.761Z,22.21
2018-05-06T10:24:43.399Z,22.30
2018-05-06T10:27:11.477Z,22.44
2018-05-06T10:29:39.088Z,22.44
2018-05-06T10:32:06.722Z,22.25
2018-05-06T10:34:34.383Z,22.29
2018-05-06T10:37:02.222Z,22.37
2018-05-06T10:39:29.817Z,22.45
2018-05-06T10:41:57.428Z,22.57
2018-05-06T10:44:25.113Z,22.72
2018-05-06T10:46:52.634Z,22.88
2018-05-06T10:49:20.368Z,22.61
2018-05-06T10:51:47.889Z,22.42
2018-05-06T10:54:15.519Z,22.50
2018-05-06T10:56:43.724Z,22.60
2018-05-06T10:59:11.343Z,22.80
2018-05-06T11:01:39.305Z,22.93
2018-05-06T11:04:06.986Z,23.13
2018-05-06T11:06:34.566Z,23.19
2018-05-06T11:09:02.237Z,23.36
2018-05-06T11:11:29.821Z,23.41
2018-05-06T11:13:57.392Z,23.50
2018-05-06T11:16:24.974Z,23.63
2018-05-06T11:18:53.507Z,23.68
2018-05-06T11:21:21.095Z,23.55
2018-05-06T11:23:48.693Z,23.49
2018-05-06T11:26:16.370Z,23.49
2018-05-06T11:28:43.913Z,23.57
2018-05-06T11:33:45.432Z,23.63
2018-05-06T11:36:13.135Z,23.62
2018-05-06T11:38:40.712Z,23.23
2018-05-06T11:41:08.343Z,23.20
2018-05-06T11:43:36.181Z,23.33
2018-05-06T11:46:03.979Z,23.31
2018-05-06T11:48:31.567Z,23.43
2018-05-06T11:50:59.140Z,23.60
2018-05-06T11:53:26.756Z,23.83
2018-05-06T11:55:54.465Z,24.01
2018-05-06T11:58:22.090Z,24.24
2018-05-06T12:00:49.692Z,24.26
2018-05-06T12:03:22.499Z,23.98
2018-05-06T12:05:50.215Z,23.67
2018-05-06T12:08:17.806Z,23.80
2018-05-06T12:10:45.381Z,23.97
2018-05-06T12:13:12.976Z,24.22
2018-05-06T12:15:40.598Z,24.33
2018-05-06T12:18:08.166Z,24.53
2018-05-06T12:20:35.745Z,24.78
2018-05-06T12:23:03.367Z,24.52
2018-05-06T12:25:31.069Z,24.37
2018-05-06T12:27:58.664Z,24.42
2018-05-06T12:30:26.255Z,24.40
2018-05-06T12:32:53.795Z,24.42
2018-05-06T12:35:21.484Z,24.45
2018-05-06T12:37:49.097Z,24.15
2018-05-06T12:40:16.664Z,24.26
2018-05-06T12:42:44.283Z,24.48
2018-05-06T12:45:11.990Z,24.72
2018-05-06T12:47:39.810Z,24.74
2018-05-06T12:50:07.382Z,24.53
2018-05-06T12:52:35.125Z,24.32
2018-05-06T12:55:02.732Z,24.48
2018-05-06T12:57:30.318Z,24.76
2018-05-06T12:59:57.881Z,24.83
2018-05-06T13:02:25.573Z,24.75
2018-05-06T13:04:53.124Z,24.66
2018-05-06T13:07:20.694Z,24.84
2018-05-06T13:09:48.266Z,25.05
2018-05-06T13:12:15.819Z,24.69
2018-05-06T13:14:43.416Z,24.33
2018-05-06T13:17:11.405Z,24.13
2018-05-06T13:19:38.993Z,23.96
2018-05-06T13:22:06.573Z,24.09
2018-05-06T13:24:34.200Z,24.41
2018-05-06T13:27:01.819Z,24.73
2018-05-06T13:29:29.669Z,25.04
2018-05-06T13:31:57.214Z,25.18
2018-05-06T13:34:24.828Z,25.17
2018-05-06T13:36:52.421Z,25.01
2018-05-06T13:39:19.980Z,25.04
2018-05-06T13:41:48.052Z,25.25
2018-05-06T13:44:15.989Z,25.40
2018-05-06T13:46:43.621Z,25.43
2018-05-06T13:49:12.072Z,25.69
2018-05-06T13:51:39.945Z,25.92
2018-05-06T13:54:07.607Z,25.85
2018-05-06T13:56:35.236Z,25.28
2018-05-06T13:59:02.888Z,24.76
2018-05-06T14:01:30.481Z,24.86
2018-05-06T14:03:58.106Z,25.07
2018-05-06T14:06:36.939Z,25.36
2018-05-06T14:09:14.049Z,25.30
2018-05-06T14:11:44.802Z,25.47
2018-05-06T14:14:21.965Z,25.46
2018-05-06T14:16:49.611Z,25.55
2018-05-06T14:19:17.212Z,25.59
2018-05-06T14:21:44.924Z,25.71
2018-05-06T14:24:12.444Z,25.83
2018-05-06T14:26:40.107Z,25.78
2018-05-06T14:29:07.741Z,25.81
2018-05-06T14:31:35.746Z,25.83
2018-05-06T14:34:03.394Z,25.74
2018-05-06T14:36:31.130Z,25.70
2018-05-06T14:38:58.732Z,25.09
2018-05-06T14:44:00.170Z,24.39
2018-05-06T14:46:40.238Z,24.53
2018-05-06T14:49:07.769Z,24.56
2018-05-06T14:51:35.294Z,24.81
2018-05-06T14:54:02.917Z,25.01
2018-05-06T14:56:30.836Z,25.15
2018-05-06T15:01:32.542Z,25.30
2018-05-06T15:04:00.152Z,25.26
2018-05-06T15:06:27.758Z,25.46
2018-05-06T15:08:55.324Z,25.38
2018-05-06T15:11:22.915Z,25.36
2018-05-06T15:13:50.482Z,25.25
2018-05-06T15:16:18.117Z,25.34
2018-05-06T15:18:45.730Z,25.36
2018-05-06T15:21:13.324Z,25.26
2018-05-06T15:23:40.910Z,25.31
2018-05-06T15:26:08.559Z,25.32
2018-05-06T15:28:36.145Z,25.18
2018-05-06T15:31:03.717Z,24.83
2018-05-06T15:33:31.307Z,24.89
2018-05-06T15:35:58.950Z,24.86
2018-05-06T15:38:26.554Z,24.96
2018-05-06T15:40:54.146Z,25.13
2018-05-06T15:43:21.813Z,25.20
2018-05-06T15:45:49.486Z,25.19
2018-05-06T15:48:17.077Z,25.08
2018-05-06T15:50:44.749Z,25.00
2018-05-06T15:53:12.380Z,25.05
2018-05-06T15:55:40.018Z,24.66
2018-05-06T15:58:07.633Z,24.39
2018-05-06T16:00:35.285Z,24.12
2018-05-06T16:03:14.532Z,23.96
2018-05-06T16:05:42.471Z,23.92
2018-05-06T16:08:10.367Z,24.01
2018-05-06T16:13:24.802Z,24.24
2018-05-06T16:16:03.328Z,24.30
2018-05-06T16:18:30.887Z,24.31
2018-05-06T16:20:58.522Z,24.27
2018-05-06T16:23:26.101Z,24.17
2018-05-06T16:25:54.375Z,24.22
2018-05-06T16:28:22.033Z,24.15
2018-05-06T16:30:49.663Z,24.15
2018-05-06T16:33:17.312Z,24.07
2018-05-06T16:35:44.899Z,24.10
2018-05-06T16:38:12.494Z,24.17
2018-05-06T16:40:40.183Z,24.20
2018-05-06T16:43:07.790Z,24.13
2018-05-06T16:45:35.385Z,24.20
2018-05-06T16:48:02.990Z,24.09
2018-05-06T16:50:31.316Z,24.03
2018-05-06T16:52:59.020Z,23.99
2018-05-06T16:55:26.603Z,23.91
2018-05-06T16:57:54.187Z,23.75
2018-05-06T17:00:21.809Z,23.75
2018-05-06T17:02:49.384Z,23.78
2018-05-06T17:05:16.982Z,23.74
2018-05-06T17:07:44.578Z,23.61
2018-05-06T17:10:12.165Z,23.44
2018-05-06T17:12:39.744Z,23.32
2018-05-06T17:15:07.356Z,23.21
2018-05-06T17:17:34.929Z,23.10
2018-05-06T17:20:13.322Z,22.92
2018-05-06T17:22:40.878Z,22.56
2018-05-06T17:25:08.445Z,22.48
2018-05-06T17:27:36.073Z,22.35
2018-05-06T17:30:03.700Z,22.19
2018-05-06T17:32:31.283Z,22.03
2018-05-06T17:34:58.892Z,21.89
2018-05-06T17:37:26.445Z,21.74
2018-05-06T17:39:54.034Z,21.67
2018-05-06T17:42:21.648Z,21.45
2018-05-06T17:44:49.246Z,21.37
2018-05-06T17:47:16.875Z,21.18
2018-05-06T17:49:44.488Z,20.90
2018-05-06T17:52:12.070Z,20.80
2018-05-06T17:54:39.720Z,20.72
2018-05-06T17:57:07.443Z,20.53
2018-05-06T17:59:35.077Z,20.33
2018-05-06T18:02:02.683Z,20.02
2018-05-06T18:04:30.382Z,19.81
2018-05-06T18:07:06.898Z,19.66
2018-05-06T18:09:37.715Z,19.57
2018-05-06T18:12:05.352Z,19.52
2018-05-06T18:14:33.088Z,19.33
2018-05-06T18:17:00.670Z,19.30
2018-05-06T18:19:28.230Z,19.29
2018-05-06T18:21:55.818Z,19.06
2018-05-06T18:24:23.544Z,18.86
2018-05-06T18:26:51.129Z,18.89
2018-05-06T18:29:18.687Z,18.81
2018-05-06T18:31:46.271Z,18.64
2018-05-06T18:34:13.842Z,18.46
2018-05-06T18:36:41.442Z,18.30
2018-05-06T18:39:09.066Z,18.21
2018-05-06T18:41:36.759Z,18.02
2018-05-06T18:44:04.357Z,17.91
2018-05-06T18:46:32.164Z,17.94
2018-05-06T18:48:59.797Z,17.84
2018-05-06T18:51:27.375Z,17.84
2018-05-06T18:53:55.559Z,17.86
2018-05-06T18:56:23.435Z,17.74
2018-05-06T18:58:51.060Z,17.78
2018-05-06T19:01:18.841Z,17.77
2018-05-06T19:03:46.487Z,17.72
2018-05-06T19:06:14.116Z,17.60
2018-05-06T19:08:41.704Z,17.55
2018-05-06T19:11:09.668Z,17.45
2018-05-06T19:13:37.459Z,17.39
2018-05-06T19:16:05.069Z,17.34
2018-05-06T19:18:32.752Z,17.14
2018-05-06T19:21:00.320Z,17.11
2018-05-06T19:23:27.915Z,16.80
2018-05-06T19:25:55.529Z,16.65
2018-05-06T19:28:23.057Z,16.60
2018-05-06T19:30:50.607Z,16.44
2018-05-06T19:33:18.781Z,16.23
2018-05-06T19:38:20.155Z,16.30
2018-05-06T19:40:47.769Z,16.20
2018-05-06T19:43:15.925Z,16.07
2018-05-06T19:45:43.632Z,16.08
2018-05-06T19:48:11.297Z,16.10
2018-05-06T19:50:38.958Z,15.88
2018-05-06T19:53:07.195Z,15.71
2018-05-06T19:55:34.819Z,15.59
2018-05-06T19:58:02.465Z,15.61
2018-05-06T20:00:30.181Z,15.59
2018-05-06T20:05:31.517Z,15.44
2018-05-06T20:07:59.174Z,15.36
2018-05-06T20:10:26.814Z,15.39
2018-05-06T20:12:54.538Z,15.35
2018-05-06T20:17:55.800Z,15.19
2018-05-06T20:20:23.459Z,15.07
2018-05-06T20:22:51.042Z,15.01
2018-05-06T20:25:18.688Z,15.05
2018-05-06T20:27:46.328Z,14.94
2018-05-06T20:30:13.925Z,14.86
2018-05-06T20:32:41.608Z,14.87
2018-05-06T20:35:09.268Z,14.85
2018-05-06T20:37:38.087Z,14.74
2018-05-06T20:40:06.465Z,14.66
2018-05-06T20:42:35.515Z,14.65
2018-05-06T20:45:03.305Z,14.60
2018-05-06T20:47:31.247Z,14.58
2018-05-06T20:49:59.884Z,14.51
2018-05-06T20:52:28.085Z,14.53
2018-05-06T20:57:29.505Z,14.45
2018-05-06T20:59:57.114Z,14.47
2018-05-06T21:02:24.724Z,14.49
2018-05-06T21:04:52.358Z,14.50
2018-05-06T21:07:20.517Z,14.46
2018-05-06T21:09:48.110Z,14.30
2018-05-06T21:12:15.994Z,14.24
2018-05-06T21:14:43.670Z,14.11
2018-05-06T21:17:11.264Z,14.04
2018-05-06T21:19:39.245Z,14.05
2018-05-06T21:22:06.846Z,13.95
2018-05-06T21:24:34.412Z,13.95
2018-05-06T21:27:02.019Z,13.97
2018-05-06T21:29:30.770Z,14.01
2018-05-06T21:31:58.431Z,13.94
2018-05-06T21:34:26.069Z,13.94
2018-05-06T21:36:53.642Z,13.94
2018-05-06T21:39:21.436Z,13.94
2018-05-06T21:41:49.019Z,13.90
2018-05-06T21:44:16.601Z,13.85
2018-05-06T21:46:44.207Z,13.81
2018-05-06T21:49:12.529Z,13.82
2018-05-06T21:51:40.528Z,13.73
2018-05-06T21:54:08.154Z,13.66
2018-05-06T21:56:35.728Z,13.63
2018-05-06T21:59:03.223Z,13.61
2018-05-06T22:01:30.882Z,13.51
2018-05-06T22:03:58.480Z,13.50
2018-05-06T22:06:25.995Z,13.44
2018-05-06T22:08:53.555Z,13.45
2018-05-06T22:11:21.647Z,13.41
2018-05-06T22:13:49.295Z,13.38
2018-05-06T22:16:16.895Z,13.31
2018-05-06T22:18:44.468Z,13.33
2018-05-06T22:21:12.073Z,13.26
2018-05-06T22:23:39.836Z,13.23
2018-05-06T22:26:07.467Z,13.18
2018-05-06T22:28:35.025Z,13.18
2018-05-06T22:31:02.622Z,13.20
2018-05-06T22:33:30.321Z,13.16
2018-05-06T22:35:57.895Z,13.08
2018-05-06T22:38:25.505Z,13.02
2018-05-06T22:40:53.097Z,12.95
2018-05-06T22:43:20.661Z,12.75
2018-05-06T22:45:48.241Z,12.66
2018-05-06T22:48:15.827Z,12.62
2018-05-06T22:50:43.399Z,12.62
2018-05-06T22:53:13.637Z,12.49
2018-05-06T22:55:41.329Z,12.42
2018-05-06T22:58:08.895Z,12.44
2018-05-06T23:00:36.428Z,12.46
2018-05-06T23:03:03.941Z,12.40
2018-05-06T23:05:31.566Z,12.44
2018-05-06T23:07:59.057Z,12.38
2018-05-06T23:10:26.695Z,12.35
2018-05-06T23:12:54.277Z,12.28
2018-05-06T23:15:22.153Z,12.24
2018-05-06T23:17:49.758Z,12.18
2018-05-06T23:20:17.381Z,12.08
2018-05-06T23:22:44.927Z,12.04
2018-05-06T23:25:13.093Z,12.05
2018-05-06T23:27:41.295Z,11.97
2018-05-06T23:30:08.851Z,11.98
2018-05-06T23:32:36.427Z,11.93
2018-05-06T23:35:03.993Z,11.94
2018-05-06T23:37:31.536Z,11.93
2018-05-06T23:39:59.034Z,11.88
2018-05-06T23:42:26.546Z,11.78
2018-05-06T23:44:54.134Z,11.61
2018-05-06T23:47:21.726Z,11.57
2018-05-06T23:49:49.271Z,11.58
2018-05-06T23:52:16.961Z,11.62
2018-05-06T23:54:44.539Z,11.60
2018-05-06T23:57:13.078Z,11.57
2018-05-06T23:59:40.655Z,11.61
